sensor_id;sensor_type;location;lat;lon;timestamp;pressure;altitude;pressure_sealevel;temperature;humidity
75172;BME280;63750;52.418;20.742;2023-02-04T00:00:58;100127.45;;;2.40;68.45
75172;BME280;63750;52.418;20.742;2023-02-04T00:03:26;100136.13;;;2.44;68.43
75172;BME280;63750;52.418;20.742;2023-02-04T00:05:55;100148.75;;;2.46;68.37
75172;BME280;63750;52.418;20.742;2023-02-04T00:08:23;100157.73;;;2.49;68.27
75172;BME280;63750;52.418;20.742;2023-02-04T00:10:52;100162.85;;;2.45;68.41
75172;BME280;63750;52.418;20.742;2023-02-04T00:13:20;100166.80;;;2.43;68.42
75172;BME280;63750;52.418;20.742;2023-02-04T00:15:49;100166.92;;;2.41;68.23
75172;BME280;63750;52.418;20.742;2023-02-04T00:18:18;100166.56;;;2.35;68.27
75172;BME280;63750;52.418;20.742;2023-02-04T00:20:46;100167.98;;;2.32;68.49
75172;BME280;63750;52.418;20.742;2023-02-04T00:23:15;100170.35;;;2.30;68.64
75172;BME280;63750;52.418;20.742;2023-02-04T00:25:44;100174.03;;;2.30;68.50
75172;BME280;63750;52.418;20.742;2023-02-04T00:28:12;100183.22;;;2.25;68.79
75172;BME280;63750;52.418;20.742;2023-02-04T00:30:41;100193.70;;;2.29;68.63
75172;BME280;63750;52.418;20.742;2023-02-04T00:33:10;100205.13;;;2.24;68.67
75172;BME280;63750;52.418;20.742;2023-02-04T00:35:38;100213.54;;;2.15;68.80
75172;BME280;63750;52.418;20.742;2023-02-04T00:38:07;100219.38;;;2.14;68.95
75172;BME280;63750;52.418;20.742;2023-02-04T00:40:36;100225.23;;;2.12;68.83
75172;BME280;63750;52.418;20.742;2023-02-04T00:43:05;100232.46;;;2.11;68.87
75172;BME280;63750;52.418;20.742;2023-02-04T00:45:36;100242.61;;;2.11;68.96
75172;BME280;63750;52.418;20.742;2023-02-04T00:48:05;100253.67;;;2.07;69.08
75172;BME280;63750;52.418;20.742;2023-02-04T00:50:34;100262.09;;;2.06;69.08
75172;BME280;63750;52.418;20.742;2023-02-04T00:53:03;100272.16;;;2.04;68.95
75172;BME280;63750;52.418;20.742;2023-02-04T00:55:31;100272.40;;;2.09;69.08
75172;BME280;63750;52.418;20.742;2023-02-04T00:58:00;100281.67;;;2.09;69.04
75172;BME280;63750;52.418;20.742;2023-02-04T01:00:29;100292.46;;;2.10;68.95
75172;BME280;63750;52.418;20.742;2023-02-04T01:02:57;100296.87;;;2.09;68.99
75172;BME280;63750;52.418;20.742;2023-02-04T01:05:26;100301.21;;;2.07;69.29
75172;BME280;63750;52.418;20.742;2023-02-04T01:07:55;100307.69;;;2.10;69.19
75172;BME280;63750;52.418;20.742;2023-02-04T01:10:24;100320.77;;;2.13;69.11
75172;BME280;63750;52.418;20.742;2023-02-04T01:12:52;100323.38;;;2.17;69.12
75172;BME280;63750;52.418;20.742;2023-02-04T01:15:21;100332.68;;;2.19;69.03
75172;BME280;63750;52.418;20.742;2023-02-04T01:17:50;100339.52;;;2.19;69.10
75172;BME280;63750;52.418;20.742;2023-02-04T01:20:19;100348.39;;;2.20;68.99
75172;BME280;63750;52.418;20.742;2023-02-04T01:22:47;100360.88;;;2.21;68.99
75172;BME280;63750;52.418;20.742;2023-02-04T01:25:16;100365.58;;;2.18;68.87
75172;BME280;63750;52.418;20.742;2023-02-04T01:27:45;100374.13;;;2.16;68.93
75172;BME280;63750;52.418;20.742;2023-02-04T01:32:43;100390.86;;;2.25;68.87
75172;BME280;63750;52.418;20.742;2023-02-04T01:35:12;100399.66;;;2.28;68.95
75172;BME280;63750;52.418;20.742;2023-02-04T01:37:41;100407.27;;;2.36;68.85
75172;BME280;63750;52.418;20.742;2023-02-04T01:40:11;100416.91;;;2.41;68.63
75172;BME280;63750;52.418;20.742;2023-02-04T01:42:41;100425.71;;;2.40;68.61
75172;BME280;63750;52.418;20.742;2023-02-04T01:45:10;100431.33;;;2.40;68.83
75172;BME280;63750;52.418;20.742;2023-02-04T01:47:40;100435.89;;;2.50;68.60
75172;BME280;63750;52.418;20.742;2023-02-04T01:50:10;100441.27;;;2.51;68.49
75172;BME280;63750;52.418;20.742;2023-02-04T01:52:41;100447.18;;;2.54;68.09
75172;BME280;63750;52.418;20.742;2023-02-04T01:55:16;100451.27;;;2.53;67.97
75172;BME280;63750;52.418;20.742;2023-02-04T01:57:45;100462.72;;;2.48;67.69
75172;BME280;63750;52.418;20.742;2023-02-04T02:00:18;100479.29;;;2.52;67.80
75172;BME280;63750;52.418;20.742;2023-02-04T02:02:51;100493.04;;;2.53;67.60
75172;BME280;63750;52.418;20.742;2023-02-04T02:05:23;100502.95;;;2.51;67.56
75172;BME280;63750;52.418;20.742;2023-02-04T02:07:55;100515.05;;;2.47;67.62
75172;BME280;63750;52.418;20.742;2023-02-04T02:10:25;100519.80;;;2.46;67.59
75172;BME280;63750;52.418;20.742;2023-02-04T02:12:55;100528.61;;;2.49;67.59
75172;BME280;63750;52.418;20.742;2023-02-04T02:15:24;100538.53;;;2.46;67.43
75172;BME280;63750;52.418;20.742;2023-02-04T02:17:53;100553.11;;;2.45;67.55
75172;BME280;63750;52.418;20.742;2023-02-04T02:20:25;100564.39;;;2.46;67.47
75172;BME280;63750;52.418;20.742;2023-02-04T02:23:00;100575.28;;;2.49;67.27
75172;BME280;63750;52.418;20.742;2023-02-04T02:25:31;100578.55;;;2.50;67.42
75172;BME280;63750;52.418;20.742;2023-02-04T02:28:00;100587.91;;;2.52;67.33
75172;BME280;63750;52.418;20.742;2023-02-04T02:30:30;100602.05;;;2.55;67.31
75172;BME280;63750;52.418;20.742;2023-02-04T02:32:59;100609.60;;;2.58;67.17
75172;BME280;63750;52.418;20.742;2023-02-04T02:35:28;100617.15;;;2.58;67.17
75172;BME280;63750;52.418;20.742;2023-02-04T02:37:57;100628.49;;;2.58;66.98
75172;BME280;63750;52.418;20.742;2023-02-04T02:40:26;100642.66;;;2.58;66.93
75172;BME280;63750;52.418;20.742;2023-02-04T02:42:55;100650.15;;;2.62;66.92
75172;BME280;63750;52.418;20.742;2023-02-04T02:45:26;100649.58;;;2.60;66.97
75172;BME280;63750;52.418;20.742;2023-02-04T02:47:56;100657.35;;;2.58;66.94
75172;BME280;63750;52.418;20.742;2023-02-04T02:50:29;100662.02;;;2.59;66.70
75172;BME280;63750;52.418;20.742;2023-02-04T02:52:58;100666.13;;;2.58;66.81
75172;BME280;63750;52.418;20.742;2023-02-04T02:55:29;100669.01;;;2.56;66.91
75172;BME280;63750;52.418;20.742;2023-02-04T02:57:57;100688.80;;;2.56;66.74
75172;BME280;63750;52.418;20.742;2023-02-04T03:00:28;100702.98;;;2.59;66.65
75172;BME280;63750;52.418;20.742;2023-02-04T03:03:00;100717.94;;;2.64;66.60
75172;BME280;63750;52.418;20.742;2023-02-04T03:05:33;100725.30;;;2.67;66.45
75172;BME280;63750;52.418;20.742;2023-02-04T03:08:03;100732.77;;;2.68;66.36
75172;BME280;63750;52.418;20.742;2023-02-04T03:10:32;100742.97;;;2.70;66.14
75172;BME280;63750;52.418;20.742;2023-02-04T03:13:01;100751.09;;;2.72;66.12
75172;BME280;63750;52.418;20.742;2023-02-04T03:15:30;100756.47;;;2.69;65.98
75172;BME280;63750;52.418;20.742;2023-02-04T03:17:59;100767.71;;;2.66;66.19
75172;BME280;63750;52.418;20.742;2023-02-04T03:20:30;100781.29;;;2.67;66.08
75172;BME280;63750;52.418;20.742;2023-02-04T03:23:00;100790.10;;;2.68;66.11
75172;BME280;63750;52.418;20.742;2023-02-04T03:25:29;100802.31;;;2.69;66.19
75172;BME280;63750;52.418;20.742;2023-02-04T03:27:58;100806.65;;;2.70;66.07
75172;BME280;63750;52.418;20.742;2023-02-04T03:30:27;100809.13;;;2.70;66.02
75172;BME280;63750;52.418;20.742;2023-02-04T03:32:56;100810.27;;;2.68;66.08
75172;BME280;63750;52.418;20.742;2023-02-04T03:35:25;100813.77;;;2.68;66.14
75172;BME280;63750;52.418;20.742;2023-02-04T03:37:54;100817.23;;;2.69;66.02
75172;BME280;63750;52.418;20.742;2023-02-04T03:40:22;100830.92;;;2.68;65.95
75172;BME280;63750;52.418;20.742;2023-02-04T03:42:51;100844.46;;;2.66;65.95
75172;BME280;63750;52.418;20.742;2023-02-04T03:45:19;100853.01;;;2.64;65.99
75172;BME280;63750;52.418;20.742;2023-02-04T03:47:48;100862.30;;;2.59;65.72
75172;BME280;63750;52.418;20.742;2023-02-04T03:50:17;100870.50;;;2.56;65.86
75172;BME280;63750;52.418;20.742;2023-02-04T03:52:46;100884.78;;;2.54;65.87
75172;BME280;63750;52.418;20.742;2023-02-04T03:55:14;100896.04;;;2.49;65.72
75172;BME280;63750;52.418;20.742;2023-02-04T03:57:43;100902.88;;;2.48;65.76
75172;BME280;63750;52.418;20.742;2023-02-04T04:00:13;100907.61;;;2.44;65.69
75172;BME280;63750;52.418;20.742;2023-02-04T04:02:42;100919.40;;;2.39;65.70
75172;BME280;63750;52.418;20.742;2023-02-04T04:05:11;100923.21;;;2.39;65.72
75172;BME280;63750;52.418;20.742;2023-02-04T04:07:40;100930.96;;;2.38;65.73
75172;BME280;63750;52.418;20.742;2023-02-04T04:10:09;100938.75;;;2.40;65.67
75172;BME280;63750;52.418;20.742;2023-02-04T04:12:38;100942.71;;;2.41;65.53
75172;BME280;63750;52.418;20.742;2023-02-04T04:15:08;100957.70;;;2.39;65.44
75172;BME280;63750;52.418;20.742;2023-02-04T04:17:36;100963.94;;;2.40;65.64
75172;BME280;63750;52.418;20.742;2023-02-04T04:20:06;100970.70;;;2.41;65.50
75172;BME280;63750;52.418;20.742;2023-02-04T04:22:35;100978.05;;;2.41;65.38
75172;BME280;63750;52.418;20.742;2023-02-04T04:25:05;100985.58;;;2.45;65.46
75172;BME280;63750;52.418;20.742;2023-02-04T04:27:34;100995.09;;;2.47;65.32
75172;BME280;63750;52.418;20.742;2023-02-04T04:30:03;100998.29;;;2.46;65.30
75172;BME280;63750;52.418;20.742;2023-02-04T04:32:31;101007.45;;;2.49;65.42
75172;BME280;63750;52.418;20.742;2023-02-04T04:35:00;101008.52;;;2.49;65.16
75172;BME280;63750;52.418;20.742;2023-02-04T04:37:28;101017.97;;;2.44;65.23
75172;BME280;63750;52.418;20.742;2023-02-04T04:39:57;101026.45;;;2.46;65.42
75172;BME280;63750;52.418;20.742;2023-02-04T04:42:25;101033.27;;;2.42;65.26
75172;BME280;63750;52.418;20.742;2023-02-04T04:44:54;101041.78;;;2.44;65.31
75172;BME280;63750;52.418;20.742;2023-02-04T04:47:23;101045.99;;;2.47;65.21
75172;BME280;63750;52.418;20.742;2023-02-04T04:49:51;101053.70;;;2.47;65.27
75172;BME280;63750;52.418;20.742;2023-02-04T04:52:20;101055.96;;;2.47;65.18
75172;BME280;63750;52.418;20.742;2023-02-04T04:54:49;101062.33;;;2.45;65.26
75172;BME280;63750;52.418;20.742;2023-02-04T04:57:18;101068.40;;;2.47;65.26
75172;BME280;63750;52.418;20.742;2023-02-04T04:59:46;101077.04;;;2.49;65.14
75172;BME280;63750;52.418;20.742;2023-02-04T05:02:15;101085.21;;;2.51;65.10
75172;BME280;63750;52.418;20.742;2023-02-04T05:04:43;101094.34;;;2.53;65.21
75172;BME280;63750;52.418;20.742;2023-02-04T05:07:12;101107.32;;;2.49;65.02
75172;BME280;63750;52.418;20.742;2023-02-04T05:09:41;101113.98;;;2.48;65.06
75172;BME280;63750;52.418;20.742;2023-02-04T05:12:10;101117.98;;;2.53;65.12
75172;BME280;63750;52.418;20.742;2023-02-04T05:14:38;101127.30;;;2.47;64.92
75172;BME280;63750;52.418;20.742;2023-02-04T05:17:07;101138.23;;;2.45;64.95
75172;BME280;63750;52.418;20.742;2023-02-04T05:19:36;101146.46;;;2.45;64.76
75172;BME280;63750;52.418;20.742;2023-02-04T05:22:05;101151.55;;;2.45;64.80
75172;BME280;63750;52.418;20.742;2023-02-04T05:24:33;101156.37;;;2.46;64.83
75172;BME280;63750;52.418;20.742;2023-02-04T05:27:02;101166.49;;;2.47;64.63
75172;BME280;63750;52.418;20.742;2023-02-04T05:29:31;101171.52;;;2.44;64.66
75172;BME280;63750;52.418;20.742;2023-02-04T05:31:59;101182.70;;;2.40;64.46
75172;BME280;63750;52.418;20.742;2023-02-04T05:34:28;101184.59;;;2.33;64.43
75172;BME280;63750;52.418;20.742;2023-02-04T05:36:56;101192.54;;;2.31;64.40
75172;BME280;63750;52.418;20.742;2023-02-04T05:39:26;101199.15;;;2.32;64.38
75172;BME280;63750;52.418;20.742;2023-02-04T05:41:55;101210.58;;;2.30;64.22
75172;BME280;63750;52.418;20.742;2023-02-04T05:44:23;101226.38;;;2.29;64.31
75172;BME280;63750;52.418;20.742;2023-02-04T05:46:52;101239.58;;;2.23;64.18
75172;BME280;63750;52.418;20.742;2023-02-04T05:49:21;101247.67;;;2.17;64.18
75172;BME280;63750;52.418;20.742;2023-02-04T05:51:49;101258.02;;;2.11;64.04
75172;BME280;63750;52.418;20.742;2023-02-04T05:54:18;101264.60;;;2.05;63.91
75172;BME280;63750;52.418;20.742;2023-02-04T05:56:48;101279.06;;;1.93;63.79
75172;BME280;63750;52.418;20.742;2023-02-04T05:59:16;101285.14;;;1.85;64.11
75172;BME280;63750;52.418;20.742;2023-02-04T06:01:45;101291.73;;;1.82;63.98
75172;BME280;63750;52.418;20.742;2023-02-04T06:04:14;101300.36;;;1.75;63.99
75172;BME280;63750;52.418;20.742;2023-02-04T06:06:42;101316.34;;;1.73;63.82
75172;BME280;63750;52.418;20.742;2023-02-04T06:09:12;101322.66;;;1.68;63.83
75172;BME280;63750;52.418;20.742;2023-02-04T06:11:41;101326.74;;;1.57;64.05
75172;BME280;63750;52.418;20.742;2023-02-04T06:14:09;101335.79;;;1.48;63.88
75172;BME280;63750;52.418;20.742;2023-02-04T06:16:38;101344.70;;;1.43;63.96
75172;BME280;63750;52.418;20.742;2023-02-04T06:19:07;101349.38;;;1.34;63.84
75172;BME280;63750;52.418;20.742;2023-02-04T06:21:35;101353.17;;;1.31;64.29
75172;BME280;63750;52.418;20.742;2023-02-04T06:24:05;101358.52;;;1.28;64.13
75172;BME280;63750;52.418;20.742;2023-02-04T06:26:33;101361.02;;;1.26;64.41
75172;BME280;63750;52.418;20.742;2023-02-04T06:29:02;101361.09;;;1.24;64.41
75172;BME280;63750;52.418;20.742;2023-02-04T06:31:31;101367.36;;;1.25;64.23
75172;BME280;63750;52.418;20.742;2023-02-04T06:34:00;101382.55;;;1.24;64.27
75172;BME280;63750;52.418;20.742;2023-02-04T06:36:28;101390.89;;;1.20;64.40
75172;BME280;63750;52.418;20.742;2023-02-04T06:38:58;101403.13;;;1.20;64.07
75172;BME280;63750;52.418;20.742;2023-02-04T06:41:26;101405.27;;;1.19;63.97
75172;BME280;63750;52.418;20.742;2023-02-04T06:43:55;101411.17;;;1.10;63.81
75172;BME280;63750;52.418;20.742;2023-02-04T06:46:24;101417.71;;;1.12;63.64
75172;BME280;63750;52.418;20.742;2023-02-04T06:48:53;101420.41;;;1.15;63.68
75172;BME280;63750;52.418;20.742;2023-02-04T06:51:22;101423.88;;;1.16;63.65
75172;BME280;63750;52.418;20.742;2023-02-04T06:53:51;101436.10;;;1.16;63.42
75172;BME280;63750;52.418;20.742;2023-02-04T06:56:19;101441.36;;;1.20;63.62
75172;BME280;63750;52.418;20.742;2023-02-04T06:58:48;101451.67;;;1.25;63.56
75172;BME280;63750;52.418;20.742;2023-02-04T07:01:17;101452.83;;;1.27;63.20
75172;BME280;63750;52.418;20.742;2023-02-04T07:03:45;101458.66;;;1.19;62.94
75172;BME280;63750;52.418;20.742;2023-02-04T07:06:14;101463.49;;;1.26;63.11
75172;BME280;63750;52.418;20.742;2023-02-04T07:08:42;101472.38;;;1.32;63.04
75172;BME280;63750;52.418;20.742;2023-02-04T07:11:11;101481.67;;;1.41;63.11
75172;BME280;63750;52.418;20.742;2023-02-04T07:13:40;101488.40;;;1.43;62.68
75172;BME280;63750;52.418;20.742;2023-02-04T07:16:09;101498.40;;;1.42;62.60
75172;BME280;63750;52.418;20.742;2023-02-04T07:18:37;101515.06;;;1.50;62.67
75172;BME280;63750;52.418;20.742;2023-02-04T07:21:06;101518.70;;;1.56;62.31
75172;BME280;63750;52.418;20.742;2023-02-04T07:23:35;101523.77;;;1.56;62.03
75172;BME280;63750;52.418;20.742;2023-02-04T07:26:03;101530.92;;;1.61;62.10
75172;BME280;63750;52.418;20.742;2023-02-04T07:28:32;101533.14;;;1.73;62.14
75172;BME280;63750;52.418;20.742;2023-02-04T07:31:01;101535.72;;;1.84;62.12
75172;BME280;63750;52.418;20.742;2023-02-04T07:33:30;101537.54;;;1.88;61.78
75172;BME280;63750;52.418;20.742;2023-02-04T07:35:59;101542.55;;;1.94;61.70
75172;BME280;63750;52.418;20.742;2023-02-04T07:38:27;101544.25;;;1.96;60.94
75172;BME280;63750;52.418;20.742;2023-02-04T07:40:56;101550.30;;;1.97;61.21
75172;BME280;63750;52.418;20.742;2023-02-04T07:43:25;101558.17;;;2.02;61.24
75172;BME280;63750;52.418;20.742;2023-02-04T07:45:54;101560.34;;;2.00;60.93
75172;BME280;63750;52.418;20.742;2023-02-04T07:48:22;101569.01;;;2.02;60.83
75172;BME280;63750;52.418;20.742;2023-02-04T07:50:51;101573.39;;;2.06;60.70
75172;BME280;63750;52.418;20.742;2023-02-04T07:53:19;101575.76;;;2.14;60.59
75172;BME280;63750;52.418;20.742;2023-02-04T07:55:48;101581.23;;;2.17;60.65
75172;BME280;63750;52.418;20.742;2023-02-04T07:58:17;101588.80;;;2.21;60.58
75172;BME280;63750;52.418;20.742;2023-02-04T08:00:46;101588.61;;;2.31;60.65
75172;BME280;63750;52.418;20.742;2023-02-04T08:03:14;101598.10;;;2.34;60.32
75172;BME280;63750;52.418;20.742;2023-02-04T08:05:43;101601.79;;;2.39;60.33
75172;BME280;63750;52.418;20.742;2023-02-04T08:08:12;101605.08;;;2.44;60.30
75172;BME280;63750;52.418;20.742;2023-02-04T08:10:43;101608.00;;;2.46;59.96
75172;BME280;63750;52.418;20.742;2023-02-04T08:13:13;101607.16;;;2.54;59.88
75172;BME280;63750;52.418;20.742;2023-02-04T08:15:41;101606.80;;;2.60;59.88
75172;BME280;63750;52.418;20.742;2023-02-04T08:18:10;101612.30;;;2.67;59.79
75172;BME280;63750;52.418;20.742;2023-02-04T08:20:39;101613.27;;;2.74;59.61
75172;BME280;63750;52.418;20.742;2023-02-04T08:23:10;101616.24;;;2.83;59.45
75172;BME280;63750;52.418;20.742;2023-02-04T08:25:39;101618.43;;;2.90;58.90
75172;BME280;63750;52.418;20.742;2023-02-04T08:28:07;101626.25;;;2.92;59.10
75172;BME280;63750;52.418;20.742;2023-02-04T08:30:39;101628.89;;;3.05;58.93
75172;BME280;63750;52.418;20.742;2023-02-04T08:33:10;101635.45;;;3.16;58.64
75172;BME280;63750;52.418;20.742;2023-02-04T08:35:39;101632.84;;;3.30;58.61
75172;BME280;63750;52.418;20.742;2023-02-04T08:38:07;101639.16;;;3.47;58.25
75172;BME280;63750;52.418;20.742;2023-02-04T08:40:39;101637.69;;;3.62;58.04
75172;BME280;63750;52.418;20.742;2023-02-04T08:43:09;101637.83;;;3.76;57.60
75172;BME280;63750;52.418;20.742;2023-02-04T08:45:37;101642.92;;;3.84;57.51
75172;BME280;63750;52.418;20.742;2023-02-04T08:48:06;101641.05;;;3.91;57.51
75172;BME280;63750;52.418;20.742;2023-02-04T08:50:35;101642.45;;;4.00;57.26
75172;BME280;63750;52.418;20.742;2023-02-04T08:53:04;101647.79;;;4.10;56.46
75172;BME280;63750;52.418;20.742;2023-02-04T08:55:33;101645.80;;;4.15;56.54
75172;BME280;63750;52.418;20.742;2023-02-04T08:58:02;101637.47;;;4.30;56.32
75172;BME280;63750;52.418;20.742;2023-02-04T09:00:31;101638.64;;;4.35;55.73
75172;BME280;63750;52.418;20.742;2023-02-04T09:02:59;101639.42;;;4.37;55.42
75172;BME280;63750;52.418;20.742;2023-02-04T09:05:28;101642.88;;;4.42;55.05
75172;BME280;63750;52.418;20.742;2023-02-04T09:07:57;101642.54;;;4.42;55.02
75172;BME280;63750;52.418;20.742;2023-02-04T09:10:26;101650.46;;;4.49;54.94
75172;BME280;63750;52.418;20.742;2023-02-04T09:12:55;101654.35;;;4.53;54.57
75172;BME280;63750;52.418;20.742;2023-02-04T09:15:24;101661.19;;;4.57;54.44
75172;BME280;63750;52.418;20.742;2023-02-04T09:17:53;101668.48;;;4.63;54.56
75172;BME280;63750;52.418;20.742;2023-02-04T09:20:22;101671.17;;;4.77;54.35
75172;BME280;63750;52.418;20.742;2023-02-04T09:22:51;101682.56;;;4.89;54.43
75172;BME280;63750;52.418;20.742;2023-02-04T09:25:20;101685.76;;;5.01;54.32
75172;BME280;63750;52.418;20.742;2023-02-04T09:27:48;101690.04;;;5.10;53.92
75172;BME280;63750;52.418;20.742;2023-02-04T09:30:18;101692.73;;;5.17;53.69
75172;BME280;63750;52.418;20.742;2023-02-04T09:32:47;101697.23;;;5.22;53.36
75172;BME280;63750;52.418;20.742;2023-02-04T09:35:16;101703.48;;;5.24;53.67
75172;BME280;63750;52.418;20.742;2023-02-04T09:37:45;101702.45;;;5.35;53.17
75172;BME280;63750;52.418;20.742;2023-02-04T09:40:16;101700.42;;;5.44;52.71
75172;BME280;63750;52.418;20.742;2023-02-04T09:42:46;101713.73;;;5.38;52.34
75172;BME280;63750;52.418;20.742;2023-02-04T09:45:17;101717.61;;;5.41;52.33
75172;BME280;63750;52.418;20.742;2023-02-04T09:47:47;101721.50;;;5.33;52.19
75172;BME280;63750;52.418;20.742;2023-02-04T09:50:19;101725.95;;;5.39;52.26
75172;BME280;63750;52.418;20.742;2023-02-04T09:52:50;101729.48;;;5.36;51.90
75172;BME280;63750;52.418;20.742;2023-02-04T09:55:21;101734.77;;;5.31;52.13
75172;BME280;63750;52.418;20.742;2023-02-04T09:57:52;101735.94;;;5.33;51.99
75172;BME280;63750;52.418;20.742;2023-02-04T10:00:23;101739.71;;;5.26;51.79
75172;BME280;63750;52.418;20.742;2023-02-04T10:02:52;101739.30;;;5.28;51.48
75172;BME280;63750;52.418;20.742;2023-02-04T10:05:26;101736.37;;;5.35;51.84
75172;BME280;63750;52.418;20.742;2023-02-04T10:07:55;101738.10;;;5.43;51.86
75172;BME280;63750;52.418;20.742;2023-02-04T10:10:25;101736.36;;;5.46;51.32
75172;BME280;63750;52.418;20.742;2023-02-04T10:12:57;101732.12;;;5.47;51.10
75172;BME280;63750;52.418;20.742;2023-02-04T10:15:27;101734.23;;;5.43;51.27
75172;BME280;63750;52.418;20.742;2023-02-04T10:18:00;101733.90;;;5.42;50.96
75172;BME280;63750;52.418;20.742;2023-02-04T10:20:31;101738.28;;;5.43;50.90
75172;BME280;63750;52.418;20.742;2023-02-04T10:23:00;101739.76;;;5.41;50.88
75172;BME280;63750;52.418;20.742;2023-02-04T10:25:28;101743.80;;;5.41;50.55
75172;BME280;63750;52.418;20.742;2023-02-04T10:27:58;101743.77;;;5.38;50.52
75172;BME280;63750;52.418;20.742;2023-02-04T10:30:29;101747.05;;;5.32;50.18
75172;BME280;63750;52.418;20.742;2023-02-04T10:32:58;101751.34;;;5.30;50.94
75172;BME280;63750;52.418;20.742;2023-02-04T10:35:27;101753.92;;;5.35;50.88
75172;BME280;63750;52.418;20.742;2023-02-04T10:38:08;101757.73;;;5.44;50.59
75172;BME280;63750;52.418;20.742;2023-02-04T10:40:37;101761.89;;;5.52;50.96
75172;BME280;63750;52.418;20.742;2023-02-04T10:43:10;101766.46;;;5.64;50.96
75172;BME280;63750;52.418;20.742;2023-02-04T10:45:42;101767.96;;;5.54;50.81
75172;BME280;63750;52.418;20.742;2023-02-04T10:48:16;101772.50;;;5.55;50.58
75172;BME280;63750;52.418;20.742;2023-02-04T10:50:46;101769.52;;;5.66;50.83
75172;BME280;63750;52.418;20.742;2023-02-04T10:53:18;101771.30;;;5.54;50.64
75172;BME280;63750;52.418;20.742;2023-02-04T10:55:48;101770.64;;;5.39;50.29
75172;BME280;63750;52.418;20.742;2023-02-04T10:58:19;101772.59;;;5.26;50.41
75172;BME280;63750;52.418;20.742;2023-02-04T11:00:52;101774.98;;;5.24;50.48
75172;BME280;63750;52.418;20.742;2023-02-04T11:03:23;101773.38;;;5.24;50.72
75172;BME280;63750;52.418;20.742;2023-02-04T11:05:55;101774.26;;;5.17;50.51
75172;BME280;63750;52.418;20.742;2023-02-04T11:08:25;101772.69;;;5.08;50.55
75172;BME280;63750;52.418;20.742;2023-02-04T11:10:58;101774.52;;;5.15;50.52
75172;BME280;63750;52.418;20.742;2023-02-04T11:13:40;101776.24;;;5.15;50.11
75172;BME280;63750;52.418;20.742;2023-02-04T11:16:23;101779.35;;;5.13;50.77
75172;BME280;63750;52.418;20.742;2023-02-04T11:18:53;101785.59;;;5.03;50.59
75172;BME280;63750;52.418;20.742;2023-02-04T11:21:28;101787.98;;;5.04;51.02
75172;BME280;63750;52.418;20.742;2023-02-04T11:24:24;101791.62;;;4.97;51.06
75172;BME280;63750;52.418;20.742;2023-02-04T11:27:03;101791.50;;;4.88;50.73
75172;BME280;63750;52.418;20.742;2023-02-04T11:29:34;101785.10;;;4.78;51.02
75172;BME280;63750;52.418;20.742;2023-02-04T11:32:05;101786.98;;;4.62;50.97
75172;BME280;63750;52.418;20.742;2023-02-04T11:34:48;101788.42;;;4.48;51.36
75172;BME280;63750;52.418;20.742;2023-02-04T11:37:34;101791.39;;;4.45;51.44
75172;BME280;63750;52.418;20.742;2023-02-04T11:40:16;101787.75;;;4.36;51.81
75172;BME280;63750;52.418;20.742;2023-02-04T11:42:48;101791.19;;;4.33;52.00
75172;BME280;63750;52.418;20.742;2023-02-04T11:45:22;101789.43;;;4.29;51.85
75172;BME280;63750;52.418;20.742;2023-02-04T11:47:52;101791.55;;;4.15;51.81
75172;BME280;63750;52.418;20.742;2023-02-04T11:50:23;101792.65;;;4.18;51.95
75172;BME280;63750;52.418;20.742;2023-02-04T11:52:54;101789.86;;;4.23;52.37
75172;BME280;63750;52.418;20.742;2023-02-04T11:55:23;101785.48;;;4.31;51.83
75172;BME280;63750;52.418;20.742;2023-02-04T11:57:54;101784.34;;;4.46;52.25
75172;BME280;63750;52.418;20.742;2023-02-04T12:00:25;101786.39;;;4.68;51.86
75172;BME280;63750;52.418;20.742;2023-02-04T12:02:58;101788.44;;;4.98;52.19
75172;BME280;63750;52.418;20.742;2023-02-04T12:05:39;101786.27;;;5.31;52.32
75172;BME280;63750;52.418;20.742;2023-02-04T12:08:23;101788.68;;;5.48;52.39
75172;BME280;63750;52.418;20.742;2023-02-04T12:11:02;101789.91;;;5.51;52.07
75172;BME280;63750;52.418;20.742;2023-02-04T12:13:32;101792.84;;;5.45;51.94
75172;BME280;63750;52.418;20.742;2023-02-04T12:16:02;101790.84;;;5.39;51.84
75172;BME280;63750;52.418;20.742;2023-02-04T12:18:33;101796.80;;;5.31;51.83
75172;BME280;63750;52.418;20.742;2023-02-04T12:21:02;101799.77;;;5.24;51.30
75172;BME280;63750;52.418;20.742;2023-02-04T12:23:31;101803.39;;;5.25;51.59
75172;BME280;63750;52.418;20.742;2023-02-04T12:26:00;101807.34;;;5.27;51.29
75172;BME280;63750;52.418;20.742;2023-02-04T12:28:29;101804.05;;;5.38;51.81
75172;BME280;63750;52.418;20.742;2023-02-04T12:30:57;101803.55;;;5.41;51.55
75172;BME280;63750;52.418;20.742;2023-02-04T12:33:26;101808.30;;;5.41;51.85
75172;BME280;63750;52.418;20.742;2023-02-04T12:35:55;101808.80;;;5.49;51.87
75172;BME280;63750;52.418;20.742;2023-02-04T12:38:24;101813.81;;;5.48;51.77
75172;BME280;63750;52.418;20.742;2023-02-04T12:40:53;101813.07;;;5.41;51.41
75172;BME280;63750;52.418;20.742;2023-02-04T12:43:22;101813.84;;;5.23;51.33
75172;BME280;63750;52.418;20.742;2023-02-04T12:45:51;101816.08;;;5.24;51.99
75172;BME280;63750;52.418;20.742;2023-02-04T12:48:19;101824.70;;;5.20;51.61
75172;BME280;63750;52.418;20.742;2023-02-04T12:50:48;101829.66;;;5.23;51.66
75172;BME280;63750;52.418;20.742;2023-02-04T12:53:17;101827.27;;;5.22;51.67
75172;BME280;63750;52.418;20.742;2023-02-04T12:55:46;101824.23;;;5.23;51.55
75172;BME280;63750;52.418;20.742;2023-02-04T12:58:14;101828.80;;;5.22;51.97
75172;BME280;63750;52.418;20.742;2023-02-04T13:00:43;101837.75;;;5.11;51.87
75172;BME280;63750;52.418;20.742;2023-02-04T13:03:12;101840.35;;;5.04;51.69
75172;BME280;63750;52.418;20.742;2023-02-04T13:05:41;101843.55;;;4.95;51.38